No.3tokuyomaru — JD3132 — position and weather

sailwx.info

Track history (hours):
 
Tides and Currents Weather Stations Pressure Air Temp Water Temp Dewpoint Dewpoint Depression Visibility Wind Speed Wind Dir Waves Ship Positions

No.3tokuyomaru

Last reported at 2015-May-05 14:33 UTC. Time now 2015-May-05 15:18 UTC.
Position N 35°30' E 139°50'.

Length 67 m; draft 4.6 m.

Type: Tanker. MMSI: 431002151.

Date/timePositionNaut miles runAvg speedWind from/ knotsBaromVisibWave heightAir tempDewpointWater temp
2015-May-05 14:33N 35°30' E 139°50'0 0.0
2015-May-05 13:33N 35°30' E 139°50'0 0.0
2015-May-05 12:33N 35°30' E 139°50'0 0.0
2015-May-05 11:33N 35°30' E 139°50'0 0.0
2015-May-05 10:33N 35°30' E 139°50'0 0.0
2015-May-05 09:33N 35°30' E 139°50'0 0.0
2015-May-05 08:33N 35°30' E 139°50'8 7.7
2015-May-05 07:33N 35°23' E 139°46'1712.4
2015-May-05 06:11N 35°06' E 139°44'237 5.1
2015-May-03 07:29N 34°38' E 134°58'1010.8
2015-May-03 06:33N 34°35' E 135°09'1111.3
2015-May-03 05:33N 34°33' E 135°23'3 0.5
2015-May-03 00:32N 34°33' E 135°26'3 2.5
2015-May-02 23:31N 34°33' E 135°23'3 3.2
2015-May-02 22:27N 34°33' E 135°19'0 0.0
2015-May-02 21:32N 34°33' E 135°19'0 0.0
2015-May-02 20:33N 34°33' E 135°19'0 0.0
2015-May-02 18:26N 34°33' E 135°19'0 0.0
2015-May-02 17:33N 34°33' E 135°19'0 0.1
2015-May-02 16:33N 34°33' E 135°19'0 0.0
2015-May-02 15:33N 34°33' E 135°19'0 0.0
2015-May-02 14:31N 34°33' E 135°19'0 0.1
2015-May-02 13:33N 34°33' E 135°19'0 0.0
2015-May-02 12:33N 34°33' E 135°19'0 0.0
2015-May-02 11:31N 34°33' E 135°19'0 0.0
2015-May-02 10:33N 34°33' E 135°19'0 0.0
2015-May-02 09:33N 34°33' E 135°19'0 0.0
2015-May-02 08:33N 34°33' E 135°19'0 0.0
2015-May-02 07:33N 34°33' E 135°19'0 0.0
2015-May-02 06:33N 34°33' E 135°19'0 0.0
2015-May-02 05:33N 34°33' E 135°19'1212.1
2015-May-02 04:34N 34°35' E 135°05'1814.6
2015-May-02 03:22N 34°40' E 134°44'  
2015-Apr-29 06:15N 35°03' E 139°34'912.5
2015-Apr-29 05:34N 35°08' E 139°43'1211.2
2015-Apr-29 04:29N 35°20' E 139°43'1111.8
2015-Apr-29 03:33N 35°30' E 139°48'1 0.6
2015-Apr-29 01:19N 35°31' E 139°46'0 0.0
2015-Apr-29 00:07N 35°31' E 139°46'0 0.0
2015-Apr-28 23:25N 35°31' E 139°46'0 0.0
2015-Apr-28 22:31N 35°31' E 139°46'3 3.0
2015-Apr-28 21:33N 35°30' E 139°50'0 0.0
2015-Apr-28 20:33N 35°30' E 139°50'0 0.0
2015-Apr-28 19:33N 35°30' E 139°50'8 7.8
2015-Apr-28 18:34N 35°23' E 139°46'1211.9
2015-Apr-28 17:33N 35°11' E 139°47'1313.3
2015-Apr-28 16:33N 34°58' E 139°44'1210.9
2015-Apr-28 15:25N 34°53' E 139°57'1112.2
2015-Apr-28 14:29N 34°59' E 140°09'6310.2
2015-Apr-28 08:19N 35°54' E 140°46'5 0.5
2015-Apr-27 23:33N 35°54' E 140°41'5 3.8
2015-Apr-27 22:17N 35°58' E 140°44'0 0.0
2015-Apr-27 21:17N 35°58' E 140°44'0 0.0
2015-Apr-27 18:32N 35°58' E 140°44'6311.5
2015-Apr-27 13:07N 35°01' E 140°13'2311.3
2015-Apr-27 11:03N 34°56' E 139°45'511.2
2015-Apr-27 10:33N 35°01' E 139°44'1212.1
2015-Apr-27 09:33N 35°13' E 139°47'1211.7
2015-Apr-27 08:33N 35°25' E 139°43'6 4.9
2015-Apr-27 07:24N 35°30' E 139°45'0 0.0
2015-Apr-27 06:06N 35°30' E 139°45'0 0.0
2015-Apr-27 05:30N 35°30' E 139°45'0 0.0
2015-Apr-27 04:33N 35°30' E 139°45'0 0.0
2015-Apr-27 03:30N 35°30' E 139°45'3 3.2
2015-Apr-27 02:33N 35°29' E 139°42'7 6.5
2015-Apr-27 01:33N 35°30' E 139°50'0 0.0
2015-Apr-27 00:33N 35°30' E 139°50'0 0.0
2015-Apr-26 23:33N 35°30' E 139°50'0 0.0
2015-Apr-26 22:33N 35°30' E 139°50'0 0.0
2015-Apr-26 21:33N 35°30' E 139°50'0 0.0
2015-Apr-26 20:33N 35°30' E 139°50'0 0.0
2015-Apr-26 19:33N 35°30' E 139°50'0 0.0
2015-Apr-26 18:33N 35°30' E 139°50'0 0.0
2015-Apr-26 17:33N 35°30' E 139°50'0 0.0
2015-Apr-26 16:33N 35°30' E 139°50'0 0.0
2015-Apr-26 15:33N 35°30' E 139°50'0 0.0
2015-Apr-26 14:33N 35°30' E 139°50'0 0.0
2015-Apr-26 13:33N 35°30' E 139°50'0 0.0
2015-Apr-26 12:33N 35°30' E 139°50'0 0.0
2015-Apr-26 11:33N 35°30' E 139°50'0 0.0
2015-Apr-26 10:34N 35°30' E 139°50'0 0.0
2015-Apr-26 09:33N 35°30' E 139°50'0 0.0
2015-Apr-26 08:33N 35°30' E 139°50'0 0.0
2015-Apr-26 07:33N 35°30' E 139°50'8 7.6
2015-Apr-26 06:33N 35°23' E 139°46'1211.5
2015-Apr-26 05:33N 35°12' E 139°47'1312.7
2015-Apr-26 04:32N 35°01' E 139°38'  
Track history (hours):
 
Tides and Currents Weather Stations Pressure Air Temp Water Temp Dewpoint Dewpoint Depression Visibility Wind Speed Wind Dir Waves Ship Positions

No.3tokuyomaru

Last reported at 2015-May-05 14:33 UTC. Time now 2015-May-05 15:18 UTC.
Position N 35°30' E 139°50'.

Length 67 m; draft 4.6 m.

Type: Tanker. MMSI: 431002151.

Date/timePositionNaut miles runAvg speedWind from/ knotsBaromVisibWave heightAir tempDewpointWater temp
2015-May-05 14:33N 35°30' E 139°50'0 0.0
2015-May-05 13:33N 35°30' E 139°50'0 0.0
2015-May-05 12:33N 35°30' E 139°50'0 0.0
2015-May-05 11:33N 35°30' E 139°50'0 0.0
2015-May-05 10:33N 35°30' E 139°50'0 0.0
2015-May-05 09:33N 35°30' E 139°50'0 0.0
2015-May-05 08:33N 35°30' E 139°50'8 7.7
2015-May-05 07:33N 35°23' E 139°46'1712.4
2015-May-05 06:11N 35°06' E 139°44'237 5.1
2015-May-03 07:29N 34°38' E 134°58'1010.8
2015-May-03 06:33N 34°35' E 135°09'1111.3
2015-May-03 05:33N 34°33' E 135°23'3 0.5
2015-May-03 00:32N 34°33' E 135°26'3 2.5
2015-May-02 23:31N 34°33' E 135°23'3 3.2
2015-May-02 22:27N 34°33' E 135°19'0 0.0
2015-May-02 21:32N 34°33' E 135°19'0 0.0
2015-May-02 20:33N 34°33' E 135°19'0 0.0
2015-May-02 18:26N 34°33' E 135°19'0 0.0
2015-May-02 17:33N 34°33' E 135°19'0 0.1
2015-May-02 16:33N 34°33' E 135°19'0 0.0
2015-May-02 15:33N 34°33' E 135°19'0 0.0
2015-May-02 14:31N 34°33' E 135°19'0 0.1
2015-May-02 13:33N 34°33' E 135°19'0 0.0
2015-May-02 12:33N 34°33' E 135°19'0 0.0
2015-May-02 11:31N 34°33' E 135°19'0 0.0
2015-May-02 10:33N 34°33' E 135°19'0 0.0
2015-May-02 09:33N 34°33' E 135°19'0 0.0
2015-May-02 08:33N 34°33' E 135°19'0 0.0
2015-May-02 07:33N 34°33' E 135°19'0 0.0
2015-May-02 06:33N 34°33' E 135°19'0 0.0
2015-May-02 05:33N 34°33' E 135°19'1212.1
2015-May-02 04:34N 34°35' E 135°05'1814.6
2015-May-02 03:22N 34°40' E 134°44'  
2015-Apr-29 06:15N 35°03' E 139°34'912.5
2015-Apr-29 05:34N 35°08' E 139°43'1211.2
2015-Apr-29 04:29N 35°20' E 139°43'1111.8
2015-Apr-29 03:33N 35°30' E 139°48'1 0.6
2015-Apr-29 01:19N 35°31' E 139°46'0 0.0
2015-Apr-29 00:07N 35°31' E 139°46'0 0.0
2015-Apr-28 23:25N 35°31' E 139°46'0 0.0
2015-Apr-28 22:31N 35°31' E 139°46'3 3.0
2015-Apr-28 21:33N 35°30' E 139°50'0 0.0
2015-Apr-28 20:33N 35°30' E 139°50'0 0.0
2015-Apr-28 19:33N 35°30' E 139°50'8 7.8
2015-Apr-28 18:34N 35°23' E 139°46'1211.9
2015-Apr-28 17:33N 35°11' E 139°47'1313.3
2015-Apr-28 16:33N 34°58' E 139°44'1210.9
2015-Apr-28 15:25N 34°53' E 139°57'1112.2
2015-Apr-28 14:29N 34°59' E 140°09'6310.2
2015-Apr-28 08:19N 35°54' E 140°46'5 0.5
2015-Apr-27 23:33N 35°54' E 140°41'5 3.8
2015-Apr-27 22:17N 35°58' E 140°44'0 0.0
2015-Apr-27 21:17N 35°58' E 140°44'0 0.0
2015-Apr-27 18:32N 35°58' E 140°44'6311.5
2015-Apr-27 13:07N 35°01' E 140°13'2311.3
2015-Apr-27 11:03N 34°56' E 139°45'511.2
2015-Apr-27 10:33N 35°01' E 139°44'1212.1
2015-Apr-27 09:33N 35°13' E 139°47'1211.7
2015-Apr-27 08:33N 35°25' E 139°43'6 4.9
2015-Apr-27 07:24N 35°30' E 139°45'0 0.0
2015-Apr-27 06:06N 35°30' E 139°45'0 0.0
2015-Apr-27 05:30N 35°30' E 139°45'0 0.0
2015-Apr-27 04:33N 35°30' E 139°45'0 0.0
2015-Apr-27 03:30N 35°30' E 139°45'3 3.2
2015-Apr-27 02:33N 35°29' E 139°42'7 6.5
2015-Apr-27 01:33N 35°30' E 139°50'0 0.0
2015-Apr-27 00:33N 35°30' E 139°50'0 0.0
2015-Apr-26 23:33N 35°30' E 139°50'0 0.0
2015-Apr-26 22:33N 35°30' E 139°50'0 0.0
2015-Apr-26 21:33N 35°30' E 139°50'0 0.0
2015-Apr-26 20:33N 35°30' E 139°50'0 0.0
2015-Apr-26 19:33N 35°30' E 139°50'0 0.0
2015-Apr-26 18:33N 35°30' E 139°50'0 0.0
2015-Apr-26 17:33N 35°30' E 139°50'0 0.0
2015-Apr-26 16:33N 35°30' E 139°50'0 0.0
2015-Apr-26 15:33N 35°30' E 139°50'0 0.0
2015-Apr-26 14:33N 35°30' E 139°50'0 0.0
2015-Apr-26 13:33N 35°30' E 139°50'0 0.0
2015-Apr-26 12:33N 35°30' E 139°50'0 0.0
2015-Apr-26 11:33N 35°30' E 139°50'0 0.0
2015-Apr-26 10:34N 35°30' E 139°50'0 0.0
2015-Apr-26 09:33N 35°30' E 139°50'0 0.0
2015-Apr-26 08:33N 35°30' E 139°50'0 0.0
2015-Apr-26 07:33N 35°30' E 139°50'8 7.6
2015-Apr-26 06:33N 35°23' E 139°46'1211.5
2015-Apr-26 05:33N 35°12' E 139°47'1312.7
2015-Apr-26 04:32N 35°01' E 139°38'  

Dump ship's entire track history